createdAt,value
2022-12-03T00:09:54.861Z,2.63
2022-12-03T00:19:57.351Z,2.63
2022-12-03T00:29:59.770Z,2.58
2022-12-03T00:40:05.054Z,2.59
2022-12-03T00:50:08.497Z,2.60
2022-12-03T01:00:13.492Z,2.55
2022-12-03T01:10:15.992Z,2.52
2022-12-03T01:20:18.748Z,2.50
2022-12-03T01:30:21.227Z,2.45
2022-12-03T01:40:23.805Z,2.45
2022-12-03T01:50:35.299Z,2.56
2022-12-03T02:00:37.598Z,2.63
2022-12-03T02:10:40.119Z,2.62
2022-12-03T02:21:01.406Z,2.58
2022-12-03T02:31:05.594Z,2.51
2022-12-03T02:41:33.379Z,2.48
2022-12-03T02:51:36.505Z,2.48
2022-12-03T03:01:38.949Z,2.42
2022-12-03T03:11:41.434Z,2.35
2022-12-03T03:21:43.821Z,2.24
2022-12-03T03:31:47.618Z,2.02
2022-12-03T03:41:50.170Z,1.46
2022-12-03T03:51:52.844Z,1.12
2022-12-03T04:01:55.251Z,0.83
2022-12-03T04:12:16.651Z,0.86
2022-12-03T04:22:37.348Z,0.66
2022-12-03T04:32:58.736Z,0.41
2022-12-03T04:43:01.288Z,0.53
2022-12-03T04:53:03.918Z,0.62
2022-12-03T05:03:06.491Z,0.75
2022-12-03T05:13:09.518Z,0.71
2022-12-03T05:23:13.953Z,0.50
2022-12-03T05:33:17.474Z,0.50
2022-12-03T05:43:19.967Z,0.50
2022-12-03T05:53:22.264Z,0.46
2022-12-03T06:03:24.813Z,0.45
2022-12-03T06:13:27.375Z,0.21
2022-12-03T06:23:29.790Z,0.24
2022-12-03T06:33:32.289Z,0.18
2022-12-03T06:43:34.988Z,0.09
2022-12-03T06:53:37.470Z,0.09
2022-12-03T07:03:39.933Z,0.14
2022-12-03T07:13:42.497Z,0.20
2022-12-03T07:23:44.855Z,0.36
2022-12-03T07:33:47.702Z,0.58
2022-12-03T07:43:50.111Z,0.76
2022-12-03T07:53:52.765Z,0.90
2022-12-03T08:03:55.504Z,0.96
2022-12-03T08:13:59.088Z,1.18
2022-12-03T08:24:16.726Z,1.35
2022-12-03T08:34:26.061Z,1.38
2022-12-03T08:44:41.690Z,1.54
2022-12-03T08:54:48.856Z,1.72
2022-12-03T09:04:53.633Z,1.98
2022-12-03T09:14:57.402Z,2.16
2022-12-03T09:25:00.304Z,2.33
2022-12-03T09:35:05.536Z,2.48
2022-12-03T09:45:13.739Z,2.57
2022-12-03T09:55:22.469Z,2.59
2022-12-03T10:05:26.366Z,2.56
2022-12-03T10:15:29.159Z,2.64
2022-12-03T10:25:31.831Z,2.86
2022-12-03T10:35:40.234Z,3.01
2022-12-03T10:45:44.572Z,3.18
2022-12-03T10:55:52.237Z,3.32
2022-12-03T11:05:56.659Z,3.28
2022-12-03T11:16:06.127Z,3.24
2022-12-03T11:26:11.169Z,3.37
2022-12-03T11:36:24.412Z,3.34
2022-12-03T11:46:45.251Z,3.38
2022-12-03T11:56:50.026Z,3.36
2022-12-03T12:06:53.578Z,3.50
2022-12-03T12:16:59.532Z,3.51
2022-12-03T12:27:15.652Z,3.39
2022-12-03T12:37:27.462Z,3.42
2022-12-03T12:47:31.653Z,3.44
2022-12-03T12:57:34.881Z,3.22
2022-12-03T13:07:38.337Z,3.11
2022-12-03T13:17:40.887Z,3.07
2022-12-03T13:27:50.179Z,2.81
2022-12-03T13:37:53.596Z,2.70
2022-12-03T13:47:58.949Z,2.58
2022-12-03T13:58:01.950Z,2.49
2022-12-03T14:08:06.326Z,2.44
2022-12-03T14:18:09.690Z,2.40
2022-12-03T14:28:12.680Z,2.39
2022-12-03T14:38:15.051Z,2.45
2022-12-03T14:48:17.578Z,2.35
2022-12-03T14:58:20.222Z,2.24
2022-12-03T15:08:24.062Z,2.20
2022-12-03T15:18:26.795Z,2.07
2022-12-03T15:28:29.264Z,2.04
2022-12-03T15:38:34.143Z,1.97
2022-12-03T15:48:36.586Z,1.93
2022-12-03T15:58:40.150Z,1.90
2022-12-03T16:08:43.221Z,1.92
2022-12-03T16:18:46.038Z,1.91
2022-12-03T16:28:49.372Z,1.89
2022-12-03T16:38:52.110Z,1.90
2022-12-03T16:48:58.697Z,1.97
2022-12-03T16:59:01.259Z,1.93
2022-12-03T17:09:04.079Z,1.91
2022-12-03T17:19:06.748Z,1.97
2022-12-03T17:29:09.123Z,1.98
2022-12-03T17:39:11.849Z,1.98
2022-12-03T17:49:14.469Z,1.96
2022-12-03T17:59:17.575Z,1.95
2022-12-03T18:09:20.325Z,1.96
2022-12-03T18:19:23.462Z,1.97
2022-12-03T18:29:26.217Z,1.96
2022-12-03T18:39:36.264Z,1.96
2022-12-03T18:49:38.876Z,1.94
2022-12-03T18:59:42.765Z,1.96
2022-12-03T19:09:45.898Z,1.96
2022-12-03T19:19:48.499Z,2.01
2022-12-03T19:29:52.099Z,2.05
2022-12-03T19:39:55.216Z,2.03
2022-12-03T19:49:58.160Z,2.07
2022-12-03T20:00:01.809Z,2.16
2022-12-03T20:10:06.191Z,2.13
2022-12-03T20:20:09.928Z,2.16
2022-12-03T20:30:12.951Z,2.15
2022-12-03T20:40:16.288Z,2.14
2022-12-03T20:50:19.532Z,2.11
2022-12-03T21:00:22.733Z,2.13
2022-12-03T21:10:37.452Z,2.13
2022-12-03T21:20:42.281Z,2.10
2022-12-03T21:30:45.011Z,2.13
2022-12-03T21:40:48.919Z,2.11
2022-12-03T21:51:03.889Z,2.12
2022-12-03T22:01:14.882Z,2.10
2022-12-03T22:11:20.738Z,2.12
2022-12-03T22:21:25.515Z,2.12
2022-12-03T22:31:29.038Z,2.13
2022-12-03T22:41:32.018Z,2.06
2022-12-03T22:51:34.967Z,2.07
2022-12-03T23:01:40.201Z,2.05
2022-12-03T23:11:45.049Z,2.06
2022-12-03T23:21:48.275Z,2.05
2022-12-03T23:31:51.047Z,2.03
2022-12-03T23:41:54.456Z,2.03
2022-12-03T23:51:57.048Z,2.03
